Time;durP1;ratioP1;P1;durP2;ratioP2;P2;SDS_P1;SDS_P2;PMS_P1;PMS_P2;Temp;Humidity;BMP_temperature;BMP_pressure;BME280_temperature;BME280_humidity;BME280_pressure;Samples;Min_cycle;Max_cycle;Signal;HPM_P1;HPM_P2
2021/12/23 00:01:21;;;;;;;72.90;27.73;;;;;;;-4.31;81.30;101539.20;1683628;83;26576;-74
2021/12/23 00:03:47;;;;;;;73.92;28.67;;;;;;;-4.33;81.28;101541.77;1684331;83;25788;-74
2021/12/23 00:06:13;;;;;;;79.00;27.87;;;;;;;-4.35;81.22;101536.02;1686638;82;99132;-74
2021/12/23 00:08:39;;;;;;;77.97;26.62;;;;;;;-4.42;81.16;101527.09;1651048;85;33012;-74
2021/12/23 00:11:04;;;;;;;74.72;27.45;;;;;;;-4.47;81.14;101533.91;1640986;85;99288;-74
2021/12/23 00:13:33;;;;;;;87.55;28.55;;;;;;;-4.52;81.13;101538.11;1637236;85;26164;-74
2021/12/23 00:23:58;;;;;;;76.10;28.07;;;;;;;-4.75;81.11;101524.70;1636107;85;99069;-73
2021/12/23 00:26:31;;;;;;;94.92;28.55;;;;;;;-4.78;81.19;101525.50;1640270;85;26453;-74
2021/12/23 00:28:57;;;;;;;87.20;29.70;;;;;;;-4.80;81.27;101516.71;1642657;84;99253;-73
2021/12/23 00:31:25;;;;;;;96.72;30.80;;;;;;;-4.78;81.33;101518.07;1646229;85;34914;-73
2021/12/23 00:33:51;;;;;;;86.12;28.35;;;;;;;-4.79;81.32;101513.68;1654621;85;25802;-73
2021/12/23 00:36:17;;;;;;;82.90;29.82;;;;;;;-4.80;81.32;101505.36;1637839;85;99139;-73
2021/12/23 00:38:51;;;;;;;87.47;30.37;;;;;;;-4.79;81.40;101510.64;1636445;85;25802;-73
2021/12/23 00:41:14;;;;;;;82.55;28.85;;;;;;;-4.78;81.41;101504.58;1638883;85;99027;-73
2021/12/23 00:43:41;;;;;;;81.40;30.70;;;;;;;-4.77;81.40;101499.81;1638864;85;54579;-73
2021/12/23 00:46:07;;;;;;;86.25;29.12;;;;;;;-4.74;81.46;101498.61;1659485;83;25765;-73
2021/12/23 00:48:39;;;;;;;81.63;29.20;;;;;;;-4.74;81.40;101493.80;1658074;84;99167;-73
2021/12/23 00:51:08;;;;;;;89.37;31.45;;;;;;;-4.75;81.39;101493.33;1715927;82;25794;-75
2021/12/23 00:53:39;;;;;;;86.55;31.30;;;;;;;-4.75;81.39;101490.29;1714105;81;99076;-75
2021/12/23 00:56:07;;;;;;;81.37;29.15;;;;;;;-4.76;81.44;101487.20;1715030;82;34848;-73
2021/12/23 00:58:33;;;;;;;87.67;30.23;;;;;;;-4.74;81.42;101483.33;1713443;81;99259;-73
2021/12/23 01:01:01;;;;;;;83.00;30.70;;;;;;;-4.74;81.46;101480.72;1715949;81;27371;-73
2021/12/23 01:03:29;;;;;;;87.40;31.15;;;;;;;-4.75;81.42;101480.25;1716561;81;25871;-73
2021/12/23 01:05:57;;;;;;;89.32;32.28;;;;;;;-4.75;81.45;101476.33;1713627;81;99104;-73
2021/12/23 01:08:25;;;;;;;97.00;34.30;;;;;;;-4.73;81.47;101479.46;1720270;81;26820;-74
2021/12/23 01:10:56;;;;;;;86.08;31.97;;;;;;;-4.75;81.47;101475.91;1709723;81;99317;-73
2021/12/23 01:13:27;;;;;;;100.10;35.03;;;;;;;-4.72;81.48;101476.42;1717959;81;28403;-73
2021/12/23 01:16:01;;;;;;;96.67;32.25;;;;;;;-4.72;81.52;101476.00;1710057;81;25689;-74
2021/12/23 01:18:32;;;;;;;84.40;31.65;;;;;;;-4.71;81.56;101470.36;1715379;81;99145;-73
2021/12/23 01:21:05;;;;;;;88.72;33.65;;;;;;;-4.70;81.49;101470.82;1717960;81;25864;-73
2021/12/23 01:23:35;;;;;;;89.85;33.35;;;;;;;-4.71;81.50;101466.44;1712732;81;99098;-73
2021/12/23 01:26:02;;;;;;;95.70;34.33;;;;;;;-4.72;81.54;101468.16;1718418;81;29414;-73
2021/12/23 01:28:28;;;;;;;89.97;32.23;;;;;;;-4.73;81.53;101465.08;1713413;81;99309;-73
2021/12/23 01:30:58;;;;;;;85.62;31.57;;;;;;;-4.73;81.52;101466.80;1718615;81;30360;-74
2021/12/23 01:33:25;;;;;;;72.67;28.15;;;;;;;-4.74;81.50;101451.53;1717527;81;25828;-74
2021/12/23 01:35:51;;;;;;;81.90;29.77;;;;;;;-4.75;81.52;101453.68;1715624;81;99178;-74
2021/12/23 01:38:19;;;;;;;83.97;30.55;;;;;;;-4.77;81.50;101454.05;1712478;82;29520;-73
2021/12/23 01:40:47;;;;;;;85.55;30.50;;;;;;;-4.79;81.49;101454.42;1714227;81;99221;-74
2021/12/23 01:43:17;;;;;;;87.92;30.57;;;;;;;-4.80;81.52;101442.19;1714247;81;25970;-73
2021/12/23 01:45:47;;;;;;;71.28;27.17;;;;;;;-4.80;81.54;101445.22;1715503;81;27999;-72
2021/12/23 01:48:16;;;;;;;78.72;26.25;;;;;;;-4.82;81.53;101446.48;1719430;81;99044;-73
2021/12/23 01:50:42;;;;;;;84.15;27.98;;;;;;;-4.83;81.48;101444.70;1717764;81;27429;-73
2021/12/23 01:53:10;;;;;;;78.10;27.52;;;;;;;-4.86;81.51;101430.65;1717904;81;99397;-72
2021/12/23 01:55:38;;;;;;;77.47;28.77;;;;;;;-4.88;81.54;101421.45;1720880;81;25736;-72
2021/12/23 01:58:07;;;;;;;94.92;30.75;;;;;;;-4.88;81.52;101421.45;1714126;81;25873;-73
2021/12/23 02:00:39;;;;;;;78.25;28.38;;;;;;;-4.90;81.59;101414.86;1712237;81;99040;-73
2021/12/23 02:03:06;;;;;;;77.90;28.23;;;;;;;-4.88;81.57;101410.10;1727729;81;28187;-73
2021/12/23 02:05:34;;;;;;;83.12;28.95;;;;;;;-4.90;81.54;101407.02;1727197;81;99131;-72
2021/12/23 02:08:02;;;;;;;72.40;27.50;;;;;;;-4.92;81.57;101407.39;1723618;81;26560;-74
2021/12/23 02:10:31;;;;;;;83.33;28.65;;;;;;;-4.93;81.57;101403.00;1722302;81;99332;-72
2021/12/23 02:12:59;;;;;;;87.00;30.23;;;;;;;-4.92;81.59;101395.63;1726601;81;25819;-72
2021/12/23 02:15:27;;;;;;;79.72;27.13;;;;;;;-4.93;81.61;101396.89;1720970;81;27394;-72
2021/12/23 02:17:53;;;;;;;76.42;27.73;;;;;;;-4.94;81.61;101388.16;1721631;81;99006;-73
2021/12/23 02:20:30;;;;;;;78.70;27.75;;;;;;;-4.95;81.60;101382.46;1723899;81;25841;-72
2021/12/23 02:22:58;;;;;;;84.55;29.77;;;;;;;-4.96;81.59;101379.37;1720881;81;99292;-72
2021/12/23 02:25:25;;;;;;;79.40;26.48;;;;;;;-4.96;81.60;101378.49;1718761;81;25790;-73
2021/12/23 02:27:53;;;;;;;85.28;29.15;;;;;;;-4.97;81.61;101383.25;1719460;81;27355;-73
2021/12/23 02:30:25;;;;;;;75.37;26.82;;;;;;;-4.98;81.65;101373.63;1718987;81;99236;-73
2021/12/23 02:32:52;;;;;;;77.55;28.27;;;;;;;-4.98;81.62;101372.33;1719883;81;25825;-73
2021/12/23 02:35:22;;;;;;;83.87;29.63;;;;;;;-4.98;81.60;101370.60;1716487;81;99037;-73
2021/12/23 02:37:49;;;;;;;87.15;30.12;;;;;;;-4.99;81.64;101368.83;1721271;81;25691;-74
2021/12/23 02:40:36;;;;;;;74.72;26.57;;;;;;;-4.99;81.67;101365.33;1715568;81;26264;-71
2021/12/23 02:43:22;;;;;;;74.07;26.15;;;;;;;-5.00;81.63;101359.21;1716071;81;98893;-73
2021/12/23 02:45:52;;;;;;;73.80;25.95;;;;;;;-5.04;81.59;101362.57;1722443;81;25858;-73
2021/12/23 02:48:23;;;;;;;77.17;26.62;;;;;;;-5.09;81.61;101351.50;1717733;81;99703;-73
2021/12/23 02:50:56;;;;;;;76.00;27.35;;;;;;;-5.06;81.65;101357.72;1718683;81;26183;-73
2021/12/23 02:53:23;;;;;;;79.80;27.50;;;;;;;-5.06;81.66;101347.68;1721469;81;99213;-72
2021/12/23 02:55:49;;;;;;;76.22;28.42;;;;;;;-5.06;81.67;101348.98;1715783;81;25708;-72
2021/12/23 02:58:17;;;;;;;86.00;29.72;;;;;;;-5.07;81.68;101346.80;1719438;81;26181;-72
2021/12/23 03:00:48;;;;;;;79.87;29.52;;;;;;;-5.08;81.66;101345.02;1727066;81;99044;-75
2021/12/23 03:03:15;;;;;;;70.95;28.25;;;;;;;-5.10;81.67;101334.05;1719516;80;25740;-75
2021/12/23 03:05:53;;;;;;;70.60;26.48;;;;;;;-5.11;81.68;101332.27;1716511;81;99079;-73
2021/12/23 03:08:37;;;;;;;71.22;27.20;;;;;;;-5.13;81.66;101327.00;1717506;81;27210;-73
2021/12/23 03:11:06;;;;;;;85.15;26.75;;;;;;;-5.14;81.70;101318.69;1718533;81;99313;-73
2021/12/23 03:13:34;;;;;;;90.75;28.25;;;;;;;-5.15;81.67;101316.92;1718642;81;26376;-74
2021/12/23 03:16:03;;;;;;;72.50;26.25;;;;;;;-5.19;81.70;101302.41;1720021;81;25815;-74
2021/12/23 03:18:29;;;;;;;80.90;27.30;;;;;;;-5.17;81.70;101304.65;1718202;81;99079;-74
2021/12/23 03:20:56;;;;;;;72.60;26.95;;;;;;;-5.16;81.71;101299.89;1719516;81;27073;-73
2021/12/23 03:23:22;;;;;;;73.20;27.77;;;;;;;-5.19;81.68;101301.98;1719570;81;99226;-73
2021/12/23 03:25:49;;;;;;;76.50;27.62;;;;;;;-5.20;81.72;101298.05;1722486;81;26116;-73
2021/12/23 03:28:15;;;;;;;94.40;30.62;;;;;;;-5.20;81.73;101288.91;1718488;81;25885;-73
2021/12/23 03:30:42;;;;;;;76.97;28.77;;;;;;;-5.21;81.76;101280.60;1718250;81;99093;-73
2021/12/23 03:33:12;;;;;;;81.02;29.18;;;;;;;-5.21;81.77;101289.33;1722225;81;27268;-74
2021/12/23 03:35:38;;;;;;;80.85;28.07;;;;;;;-5.21;81.79;101286.72;1716970;81;99002;-74
2021/12/23 03:38:06;;;;;;;85.00;28.67;;;;;;;-5.22;81.76;101286.25;1716467;81;25788;-73
2021/12/23 03:40:32;;;;;;;78.87;27.55;;;;;;;-5.22;81.78;101279.72;1720594;81;25302;-73
2021/12/23 03:42:58;;;;;;;83.30;27.27;;;;;;;-5.21;81.76;101274.95;1727801;81;99014;-74
2021/12/23 03:45:26;;;;;;;83.07;29.50;;;;;;;-5.22;81.79;101282.75;1716693;81;25861;-73
2021/12/23 03:47:55;;;;;;;83.78;28.10;;;;;;;-5.24;81.79;101270.95;1716523;81;99045;-73
2021/12/23 03:50:26;;;;;;;89.40;27.48;;;;;;;-5.24;81.79;101265.72;1716848;81;25898;-73
2021/12/23 03:52:55;;;;;;;78.28;28.00;;;;;;;-5.24;81.81;101267.02;1719125;81;99365;-73
2021/12/23 03:55:21;;;;;;;82.35;29.15;;;;;;;-5.25;81.81;101267.45;1712941;82;29551;-74
2021/12/23 03:57:49;;;;;;;86.20;30.95;;;;;;;-5.24;81.82;101256.57;1717271;81;25883;-74
2021/12/23 04:00:22;;;;;;;69.85;28.27;;;;;;;-5.22;81.84;101255.31;1716262;81;99202;-73
2021/12/23 04:02:55;;;;;;;80.70;27.85;;;;;;;-5.22;81.85;101243.13;1719252;81;25817;-73
2021/12/23 04:05:23;;;;;;;85.25;31.25;;;;;;;-5.22;81.84;101234.41;1712773;81;99370;-73
2021/12/23 04:07:51;;;;;;;83.05;30.97;;;;;;;-5.22;81.86;101233.98;1711883;81;28660;-74
2021/12/23 04:10:25;;;;;;;79.45;29.87;;;;;;;-5.22;81.90;101230.06;1717493;81;25749;-73
2021/12/23 04:12:48;;;;;;;;;;;;;;;-5.21;81.91;101224.00;1718182;81;99105;-74
2021/12/23 04:15:16;;;;;;;60.40;22.48;;;;;;;-5.20;81.91;101229.70;1713093;81;25844;-74
2021/12/23 04:17:43;;;;;;;85.22;29.35;;;;;;;-5.20;81.89;101223.58;1680767;83;99217;-74
2021/12/23 04:20:19;;;;;;;86.20;29.75;;;;;;;-5.20;81.91;101219.23;1717410;81;27429;-74
2021/12/23 04:22:44;;;;;;;81.42;28.32;;;;;;;-5.20;81.93;101206.17;1715131;81;99419;-72
2021/12/23 04:25:14;;;;;;;75.55;28.07;;;;;;;-5.19;81.93;101197.88;1716708;81;25864;-73
2021/12/23 04:27:40;;;;;;;82.70;30.25;;;;;;;-5.19;81.93;101193.54;1717170;81;25798;-73
2021/12/23 04:30:11;;;;;;;92.65;31.52;;;;;;;-5.18;81.96;101190.51;1716558;81;99472;-73
2021/12/23 04:32:40;;;;;;;91.85;32.03;;;;;;;-5.17;81.96;101191.86;1678874;83;28146;-73
2021/12/23 04:35:08;;;;;;;80.77;27.30;;;;;;;-5.15;81.95;101186.25;1680516;82;99593;-73
2021/12/23 04:37:34;;;;;;;80.38;30.65;;;;;;;-5.14;81.95;101183.22;1717309;81;25756;-73
2021/12/23 04:40:00;;;;;;;89.03;31.70;;;;;;;-5.14;81.94;101168.84;1718635;81;25731;-73
2021/12/23 04:42:26;;;;;;;88.40;31.70;;;;;;;-5.13;81.99;101163.66;1714686;81;99092;-73
2021/12/23 04:44:52;;;;;;;89.03;31.57;;;;;;;-5.10;82.02;101161.14;1713265;82;27352;-73
2021/12/23 04:47:20;;;;;;;84.87;30.32;;;;;;;-5.08;82.00;101153.34;1714433;81;99365;-73
2021/12/23 04:49:46;;;;;;;78.47;29.12;;;;;;;-5.09;81.94;101152.45;1719082;81;25740;-75
2021/12/23 04:52:13;;;;;;;80.53;30.27;;;;;;;-5.09;81.94;101151.15;1720777;81;34883;-75
2021/12/23 04:54:38;;;;;;;78.70;27.80;;;;;;;-5.09;81.93;101157.68;1715308;81;99099;-75
2021/12/23 04:57:06;;;;;;;93.62;32.33;;;;;;;-5.11;81.89;101144.99;1716170;81;27434;-75
2021/12/23 04:59:34;;;;;;;92.60;33.35;;;;;;;-5.13;81.89;101145.79;1718890;81;99121;-76
2021/12/23 05:02:01;;;;;;;89.15;29.65;;;;;;;-5.13;81.95;101136.64;1718651;81;26390;-75
2021/12/23 05:04:27;;;;;;;101.70;34.25;;;;;;;-5.13;81.95;101133.61;1718612;81;27817;-74
2021/12/23 05:06:56;;;;;;;88.40;30.97;;;;;;;-5.13;81.92;101130.11;1718957;81;99371;-74
2021/12/23 05:09:21;;;;;;;87.85;31.97;;;;;;;-5.13;81.97;101118.35;1718912;81;27470;-73
2021/12/23 05:11:47;;;;;;;91.25;30.88;;;;;;;-5.13;81.99;101111.40;1717068;81;99109;-73
2021/12/23 05:14:13;;;;;;;93.80;33.35;;;;;;;-5.11;81.96;101102.30;1719433;81;30900;-74
2021/12/23 05:16:39;;;;;;;81.50;29.90;;;;;;;-5.13;81.96;101107.48;1717196;81;33003;-74
2021/12/23 05:19:06;;;;;;;99.75;31.27;;;;;;;-5.13;81.94;101117.93;1717269;81;98970;-74
2021/12/23 05:21:31;;;;;;;90.87;31.82;;;;;;;-5.13;81.98;101119.23;1721882;81;27378;-73
2021/12/23 05:23:59;;;;;;;88.92;28.02;;;;;;;-5.12;82.00;101105.33;1718581;81;99063;-73
2021/12/23 05:26:26;;;;;;;91.25;31.33;;;;;;;-5.11;81.96;101090.53;1722498;81;25788;-76
2021/12/23 05:28:52;;;;;;;90.28;32.30;;;;;;;-5.09;82.01;101098.88;1716152;81;99262;-73
2021/12/23 05:31:18;;;;;;;87.45;33.58;;;;;;;-5.08;82.06;101082.35;1720773;81;25783;-74
2021/12/23 05:33:46;;;;;;;84.07;31.37;;;;;;;-5.06;82.04;101074.13;1720548;81;28016;-73
2021/12/23 05:36:14;;;;;;;85.65;33.08;;;;;;;-5.04;82.03;101075.05;1719457;81;98990;-73
2021/12/23 05:38:40;;;;;;;77.15;29.07;;;;;;;-5.04;82.04;101072.44;1717032;81;26504;-74
2021/12/23 05:41:06;;;;;;;81.50;30.70;;;;;;;-5.03;82.06;101072.02;1717091;81;99341;-73
2021/12/23 05:43:34;;;;;;;92.05;32.40;;;;;;;-5.02;82.06;101062.91;1719533;81;25760;-73
2021/12/23 05:46:01;;;;;;;95.05;34.55;;;;;;;-5.00;82.07;101069.06;1682008;83;27386;-73
2021/12/23 05:48:26;;;;;;;83.52;29.77;;;;;;;-4.99;82.07;101063.41;1682795;83;99138;-76
2021/12/23 05:50:53;;;;;;;85.42;29.98;;;;;;;-4.99;82.04;101062.11;1682417;83;30485;-74
2021/12/23 05:53:19;;;;;;;86.92;32.98;;;;;;;-4.99;82.04;101053.84;1684931;83;98423;-73
2021/12/23 05:55:46;;;;;;;84.62;32.05;;;;;;;-4.99;82.04;101047.73;1683002;83;25762;-73
2021/12/23 05:58:13;;;;;;;83.87;31.00;;;;;;;-4.98;82.06;101049.08;1679760;83;27425;-76
2021/12/23 06:00:40;;;;;;;95.40;33.28;;;;;;;-4.97;82.06;101048.23;1677684;83;99029;-76
2021/12/23 06:03:05;;;;;;;92.40;33.35;;;;;;;-4.96;82.05;101049.11;1682944;83;26389;-76
2021/12/23 06:05:33;;;;;;;92.30;31.87;;;;;;;-4.94;82.06;101050.04;1672437;84;99134;-76
2021/12/23 06:07:59;;;;;;;89.07;33.10;;;;;;;-4.95;82.07;101036.51;1673837;84;25827;-77
2021/12/23 06:10:25;;;;;;;90.65;34.10;;;;;;;-4.94;82.04;101041.77;1674576;84;27467;-76
2021/12/23 06:12:51;;;;;;;95.87;33.48;;;;;;;-4.93;82.10;101037.01;1669005;84;99051;-75
2021/12/23 06:15:21;;;;;;;89.95;35.43;;;;;;;-4.90;82.10;101038.39;1672383;84;30402;-73
2021/12/23 06:17:47;;;;;;;101.70;34.50;;;;;;;-4.88;82.11;101034.93;1668323;84;99067;-72
2021/12/23 06:20:15;;;;;;;110.75;37.42;;;;;;;-4.88;82.09;101030.59;1671961;84;32476;-72
2021/12/23 06:22:42;;;;;;;104.63;37.20;;;;;;;-4.86;82.12;101028.02;1670511;84;29588;-75
2021/12/23 06:25:12;;;;;;;101.02;35.52;;;;;;;-4.85;82.13;101021.52;1669985;84;99006;-75
2021/12/23 06:27:43;;;;;;;89.80;32.17;;;;;;;-4.87;82.13;101014.05;1673941;84;28206;-77
2021/12/23 06:30:21;;;;;;;98.47;35.20;;;;;;;-4.83;82.09;101030.70;1680093;83;99079;-77
2021/12/23 06:32:49;;;;;;;92.40;31.68;;;;;;;-4.84;82.09;101025.89;1682763;83;25786;-77
2021/12/23 06:35:20;;;;;;;80.83;31.27;;;;;;;-4.83;82.11;101027.66;1687096;82;99164;-74
2021/12/23 06:37:47;;;;;;;92.55;33.30;;;;;;;-4.82;82.13;101016.36;1681412;83;27162;-75
2021/12/23 06:40:14;;;;;;;106.50;35.63;;;;;;;-4.80;82.15;101009.44;1671138;84;26358;-74
2021/12/23 06:42:42;;;;;;;92.12;33.90;;;;;;;-4.79;82.16;101010.33;1672860;84;99213;-73
2021/12/23 06:45:11;;;;;;;92.70;31.50;;;;;;;-4.76;82.17;101009.97;1675124;84;25752;-73
2021/12/23 06:47:38;;;;;;;102.53;36.63;;;;;;;-4.76;82.16;101001.24;1674441;84;99053;-76
2021/12/23 06:50:08;;;;;;;90.00;32.08;;;;;;;-4.71;82.17;101002.23;1671799;84;25846;-73
2021/12/23 06:52:42;;;;;;;88.42;35.33;;;;;;;-4.69;82.15;100998.81;1673202;84;26163;-73
2021/12/23 06:55:12;;;;;;;91.70;31.93;;;;;;;-4.68;82.15;100995.77;1670314;84;98948;-73
2021/12/23 06:57:43;;;;;;;90.55;34.10;;;;;;;-4.66;82.16;100991.47;1663011;84;25817;-74
2021/12/23 07:00:15;;;;;;;81.72;29.82;;;;;;;-4.63;82.18;100986.30;1659551;84;99633;-73
2021/12/23 07:02:45;;;;;;;90.60;29.45;;;;;;;-4.62;82.18;100981.53;1692725;83;26011;-73
2021/12/23 07:05:12;;;;;;;79.95;31.48;;;;;;;-4.60;82.16;100984.64;1695176;82;99158;-73
2021/12/23 07:08:15;;;;;;;;;;;;;;;;;;;;;
2021/12/23 07:10:31;;;;;;;96.53;33.38;;;;;;;-4.58;82.14;100985.56;1693750;83;25613;-73
2021/12/23 07:13:01;;;;;;;86.57;30.65;;;;;;;-4.58;82.13;100979.45;1693278;82;99207;-73
2021/12/23 07:15:30;;;;;;;89.65;33.42;;;;;;;-4.57;82.13;100973.38;1693609;83;25701;-74
2021/12/23 07:17:58;;;;;;;94.30;34.30;;;;;;;-4.56;82.14;100976.45;1691922;83;99104;-73
2021/12/23 07:20:27;;;;;;;89.75;33.18;;;;;;;-4.55;82.11;100969.48;1689778;83;26474;-76
2021/12/23 07:22:56;;;;;;;85.57;31.27;;;;;;;-4.55;82.14;100976.91;1688116;83;99158;-75
2021/12/23 07:25:22;;;;;;;85.72;32.53;;;;;;;-4.50;82.15;100987.47;1692207;83;27441;-76
2021/12/23 07:27:49;;;;;;;79.22;31.65;;;;;;;-4.50;82.11;100981.81;1672281;84;34331;-76
2021/12/23 07:30:21;;;;;;;80.17;29.48;;;;;;;-4.48;82.14;100977.50;1672927;84;99172;-76
2021/12/23 07:32:54;;;;;;;88.05;33.60;;;;;;;-4.43;82.19;100965.83;1696521;83;26464;-76
2021/12/23 07:35:22;;;;;;;82.90;30.70;;;;;;;-4.39;82.21;100955.47;1666408;83;99155;-74
2021/12/23 07:37:49;;;;;;;84.83;32.93;;;;;;;-4.36;82.17;100950.73;1673841;84;29433;-74
2021/12/23 07:40:17;;;;;;;92.17;31.85;;;;;;;-4.33;82.17;100946.44;1673990;84;25869;-74
2021/12/23 07:42:55;;;;;;;87.80;30.20;;;;;;;-4.30;82.16;100947.81;1664434;84;99187;-73
2021/12/23 07:45:24;;;;;;;82.25;32.83;;;;;;;-4.28;82.12;100950.05;1677149;84;25878;-75
2021/12/23 07:47:52;;;;;;;80.75;30.45;;;;;;;-4.25;82.16;100955.34;1660687;84;99130;-73
2021/12/23 07:50:18;;;;;;;85.17;32.20;;;;;;;-4.21;82.14;100956.72;1652386;85;28354;-75
2021/12/23 07:52:47;;;;;;;90.03;31.73;;;;;;;-4.18;82.15;100953.73;1676015;83;26058;-75
2021/12/23 07:55:14;;;;;;;84.35;30.62;;;;;;;-4.12;82.17;100949.05;1677088;83;98768;-75
2021/12/23 07:57:43;;;;;;;91.28;33.15;;;;;;;-4.10;82.13;100950.85;1680784;83;26702;-77
2021/12/23 08:00:11;;;;;;;98.80;35.68;;;;;;;-4.07;82.09;100948.73;1679838;83;99193;-78
2021/12/23 08:02:40;;;;;;;82.15;31.48;;;;;;;-4.08;82.07;100950.89;1685095;83;27549;-77
2021/12/23 08:05:09;;;;;;;93.47;33.42;;;;;;;-4.07;82.10;100947.41;1685420;83;99308;-74
2021/12/23 08:07:39;;;;;;;90.32;33.02;;;;;;;-4.07;82.09;100942.18;1657659;83;25873;-74
2021/12/23 08:10:10;;;;;;;95.72;35.28;;;;;;;-4.05;82.08;100941.78;1680727;83;35320;-74
2021/12/23 08:12:39;;;;;;;86.92;34.15;;;;;;;-4.03;82.11;100941.39;1676566;83;99028;-74
2021/12/23 08:15:07;;;;;;;99.25;38.00;;;;;;;-4.01;82.09;100929.22;1682983;83;27396;-74
2021/12/23 08:17:36;;;;;;;102.62;37.78;;;;;;;-3.97;82.09;100927.12;1670363;83;99359;-73
2021/12/23 08:20:04;;;;;;;82.78;34.00;;;;;;;-3.94;82.07;100927.17;1656328;85;25837;-71
2021/12/23 08:22:30;;;;;;;97.85;35.58;;;;;;;-3.92;82.03;100918.50;1680934;83;25839;-78
2021/12/23 08:24:59;;;;;;;94.77;36.33;;;;;;;-3.90;81.99;100917.64;1691919;82;98194;-75
2021/12/23 08:27:33;;;;;;;99.05;36.13;;;;;;;-3.90;82.00;100905.44;1699405;82;27480;-76
2021/12/23 08:30:05;;;;;;;107.12;36.83;;;;;;;-3.88;81.96;100908.97;1715688;81;99162;-75
2021/12/23 08:32:32;;;;;;;89.97;32.65;;;;;;;-3.88;81.93;100906.34;1735430;81;25769;-73
2021/12/23 08:35:01;;;;;;;89.92;32.67;;;;;;;-3.86;81.97;100909.00;1733184;81;99352;-75
2021/12/23 08:37:27;;;;;;;97.12;35.45;;;;;;;-3.84;81.96;100907.29;1731933;81;25864;-75
2021/12/23 08:39:55;;;;;;;110.15;36.58;;;;;;;-3.80;81.96;100898.21;1733088;81;27609;-75
2021/12/23 08:42:24;;;;;;;105.65;35.88;;;;;;;-3.75;82.01;100890.44;1732041;81;99207;-75
2021/12/23 08:44:50;;;;;;;122.28;41.08;;;;;;;-3.72;82.06;100865.19;1737998;81;26622;-77
2021/12/23 08:47:22;;;;;;;136.75;44.00;;;;;;;-3.58;82.10;100861.92;1733866;81;99430;-75
2021/12/23 08:49:49;;;;;;;136.52;48.17;;;;;;;-3.58;81.97;100854.95;1735020;81;26738;-74
2021/12/23 08:52:17;;;;;;;124.15;43.60;;;;;;;-3.57;81.94;100846.66;1735544;81;29523;-73
2021/12/23 08:54:47;;;;;;;115.95;40.20;;;;;;;-3.54;81.95;100844.09;1732060;81;99801;-77
2021/12/23 08:57:15;;;;;;;113.47;37.45;;;;;;;-3.52;81.89;100835.83;1735684;81;25882;-75
2021/12/23 08:59:43;;;;;;;109.50;37.75;;;;;;;-3.49;81.92;100831.95;1731961;81;99546;-75
2021/12/23 09:02:08;;;;;;;111.03;38.58;;;;;;;-3.45;81.95;100835.07;1739221;81;25723;-75
2021/12/23 09:04:38;;;;;;;107.45;37.20;;;;;;;-3.46;81.86;100830.69;1733545;81;27330;-74
2021/12/23 09:07:07;;;;;;;102.30;35.08;;;;;;;-3.45;81.85;100831.14;1733702;81;99225;-75
2021/12/23 09:09:36;;;;;;;95.20;35.65;;;;;;;-3.47;81.78;100830.23;1739357;81;25745;-76
2021/12/23 09:12:06;;;;;;;86.12;33.38;;;;;;;-3.43;81.86;100832.05;1734243;81;99020;-75
2021/12/23 09:14:35;;;;;;;85.50;32.03;;;;;;;-3.44;81.80;100826.36;1740442;81;25845;-75
2021/12/23 09:17:03;;;;;;;109.87;43.98;;;;;;;-3.43;81.80;100817.20;1741446;80;99297;-74
2021/12/23 09:19:30;;;;;;;87.62;34.33;;;;;;;-3.40;81.82;100809.83;1735639;81;25822;-73
2021/12/23 09:21:57;;;;;;;91.78;33.48;;;;;;;-3.37;81.81;100807.25;1736012;81;25825;-74
2021/12/23 09:24:26;;;;;;;78.78;30.15;;;;;;;-3.34;81.81;100807.30;1701532;82;99071;-75
2021/12/23 09:27:06;;;;;;;85.00;31.15;;;;;;;-3.30;81.76;100802.55;1700421;82;25867;-74
2021/12/23 09:34:53;;;;;;;81.08;30.27;;;;;;;-3.27;81.71;100789.50;1698479;82;25833;-75
2021/12/23 09:37:23;;;;;;;94.00;31.77;;;;;;;-3.28;81.66;100784.69;1697027;82;98809;-75
2021/12/23 09:39:55;;;;;;;83.27;32.28;;;;;;;-3.27;81.69;100764.59;1699390;82;25797;-79
2021/12/23 09:42:25;;;;;;;92.30;31.93;;;;;;;-3.24;81.70;100764.64;1695320;82;99050;-77
2021/12/23 09:44:58;;;;;;;85.72;33.58;;;;;;;-3.22;81.66;100747.19;1698515;82;26402;-74
2021/12/23 09:47:28;;;;;;;91.42;35.78;;;;;;;-3.24;81.57;100731.87;1696928;82;99279;-74
2021/12/23 09:49:58;;;;;;;85.03;35.25;;;;;;;-3.28;81.64;100707.80;1695998;82;25759;-80
2021/12/23 09:52:30;;;;;;;88.45;31.65;;;;;;;-3.14;81.76;100706.67;1664521;83;33625;-75
2021/12/23 09:54:57;;;;;;;87.57;34.75;;;;;;;-3.10;81.71;100715.02;1680091;82;99091;-74
2021/12/23 09:57:24;;;;;;;95.32;33.88;;;;;;;-3.13;81.50;100722.41;1676959;83;25528;-74
2021/12/23 09:59:54;;;;;;;86.05;32.40;;;;;;;-3.17;81.52;100716.69;1678910;83;99151;-74
2021/12/23 10:02:22;;;;;;;92.92;36.55;;;;;;;-3.18;81.48;100709.68;1680203;83;26492;-73
2021/12/23 10:04:53;;;;;;;89.58;33.60;;;;;;;-3.16;81.50;100711.89;1684143;83;26684;-74
2021/12/23 10:07:20;;;;;;;83.75;31.25;;;;;;;-3.14;81.49;100716.72;1676840;83;99114;-73
2021/12/23 10:10:00;;;;;;;71.37;28.30;;;;;;;-3.11;81.49;100722.44;1681764;83;26012;-72
2021/12/23 10:31:47;;;;;;;94.05;34.75;;;;;;;-2.72;81.35;100678.33;1680856;83;98828;-73
2021/12/23 10:37:18;;;;;;;82.15;29.63;;;;;;;-2.64;81.21;100663.55;1678166;83;99282;-75
2021/12/23 10:39:52;;;;;;;81.30;28.85;;;;;;;-2.63;81.15;100655.25;1681253;83;25828;-75
2021/12/23 10:42:23;;;;;;;78.42;29.95;;;;;;;-2.52;81.28;100644.83;1678940;83;99038;-75
2021/12/23 10:44:57;;;;;;;89.10;33.15;;;;;;;-2.43;81.27;100633.09;1690237;82;26120;-74
2021/12/23 10:47:45;;;;;;;90.80;35.92;;;;;;;-2.41;81.12;100624.38;1679001;83;99474;-72
2021/12/23 10:50:42;;;;;;;75.70;27.77;;;;;;;-2.33;81.17;100621.38;1685446;83;26006;-74
2021/12/23 10:57:57;;;;;;;77.15;28.70;;;;;;;-2.32;81.05;100612.64;1688308;83;99138;-73
2021/12/23 10:59:26;;;;;;;83.90;30.73;;;;;;;-2.30;81.00;100587.72;1687641;83;99212;-74
2021/12/23 11:02:19;;;;;;;71.12;28.85;;;;;;;-2.26;80.91;100575.48;1690854;83;26003;-73
2021/12/23 11:05:14;;;;;;;70.05;28.95;;;;;;;-2.24;81.02;100565.87;1689686;83;25801;-74
2021/12/23 11:07:57;;;;;;;99.45;35.70;;;;;;;-2.27;80.87;100560.17;1697012;83;99175;-73
2021/12/23 11:10:24;;;;;;;71.40;28.67;;;;;;;-2.30;80.88;100550.96;1685785;83;26335;-73
2021/12/23 11:30:37;;;;;;;60.12;26.42;;;;;;;-2.26;80.61;100504.61;1688776;83;99288;-73
2021/12/23 11:38:22;;;;;;;64.22;26.70;;;;;;;-2.06;80.55;100496.41;1690888;83;26366;-73
2021/12/23 11:43:27;;;;;;;67.92;25.08;;;;;;;-1.99;80.41;100477.19;1699062;82;99059;-75
2021/12/23 11:45:47;;;;;;;71.53;25.25;;;;;;;-2.01;80.25;100477.63;1693791;83;25807;-74
2021/12/23 11:48:14;;;;;;;64.80;25.12;;;;;;;-2.00;80.33;100471.50;1689407;82;99137;-75
2021/12/23 11:50:53;;;;;;;66.67;24.07;;;;;;;-1.99;80.28;100462.31;1689002;83;26462;-74
2021/12/23 11:53:10;;;;;;;57.10;24.27;;;;;;;-1.96;80.19;100461.45;1718969;81;25798;-71
2021/12/23 11:55:37;;;;;;;69.12;25.05;;;;;;;-1.98;80.06;100461.88;1717142;81;98839;-75
2021/12/23 11:58:07;;;;;;;60.80;24.43;;;;;;;-1.98;80.13;100455.31;1716085;81;25940;-71
2021/12/23 12:00:43;;;;;;;70.53;27.93;;;;;;;-2.05;79.86;100445.22;1720309;81;99158;-70
2021/12/23 12:03:14;;;;;;;66.45;25.45;;;;;;;-2.05;79.86;100445.22;1715281;81;26488;-69
2021/12/23 12:05:40;;;;;;;74.05;26.52;;;;;;;-2.05;79.97;100442.59;1719544;81;99377;-73
2021/12/23 12:08:12;;;;;;;66.28;26.97;;;;;;;-2.05;79.93;100446.96;1718057;81;25854;-72
2021/12/23 12:10:43;;;;;;;75.08;28.95;;;;;;;-2.01;79.97;100447.42;1719975;81;26368;-70
2021/12/23 12:13:16;;;;;;;67.08;24.57;;;;;;;-1.96;79.92;100441.31;1718782;81;99073;-72
2021/12/23 12:15:47;;;;;;;77.70;27.52;;;;;;;-1.90;79.93;100434.33;1718626;81;26500;-70
2021/12/23 12:18:19;;;;;;;114.95;36.65;;;;;;;-1.91;79.79;100437.39;1716701;81;99221;-73
2021/12/23 12:20:52;;;;;;;89.58;28.47;;;;;;;-1.88;79.80;100424.70;1690986;83;28081;-72
2021/12/23 12:23:31;;;;;;;72.60;27.20;;;;;;;-1.91;79.67;100417.69;1687466;83;99322;-72